Raglesville, Indiana
Current Conditions -  °F | °C
As of 5:15 PM on Wednesday 17 Dec 2014 (Local Time) from KDCY Reporting Station
Overcast Overcast  
Wind Chill: 24°   Ceiling: 1900
Heat Index: 30°   Visibility: 10mi
Dew Point: 23°   Wind: 6mph
Humidity: 73%   Direction: 340°NNW
Pressure: 30.29"   Gusts: NA
Location:  38.8205°N, 86.9659°W
Report Text: KDCY 172315Z AUTO 34005KT 10SM OVC019 M01/M05 A3029 RMK AO2 T10101052
Loading
Personal Weather Stations






























Interactive Weather Map New forecast layout! Learn more

10-Day Weather Forecast

Advertisements
Track Severe Weather on mobile